Time;durP1;ratioP1;P1;durP2;ratioP2;P2;SDS_P1;SDS_P2;PMS_P1;PMS_P2;Temp;Humidity;BMP_temperature;BMP_pressure;BME280_temperature;BME280_humidity;BME280_pressure;Samples;Min_cycle;Max_cycle;Signal;HPM_P1;HPM_P2
2022/05/03 00:01:19;;;;;;;8.48;5.78;;;;;;;7.68;100.00;102066.09;5031607;28;20053;-34
2022/05/03 00:03:54;;;;;;;8.15;5.88;;;;;;;7.65;100.00;102064.63;5031551;28;20395;-35
2022/05/03 00:06:31;;;;;;;8.15;6.03;;;;;;;7.63;100.00;102061.25;5033166;28;20061;-36
2022/05/03 00:09:05;;;;;;;7.15;4.78;;;;;;;7.60;100.00;102058.97;5035282;28;20049;-34
2022/05/03 00:11:38;;;;;;;7.32;5.68;;;;;;;7.57;100.00;102056.72;5035210;28;20049;-31
2022/05/03 00:14:13;;;;;;;6.60;4.60;;;;;;;7.56;100.00;102055.06;5034354;28;20061;-36
2022/05/03 00:16:44;;;;;;;7.93;5.88;;;;;;;7.54;100.00;102060.84;5034963;28;20053;-28
2022/05/03 00:19:12;;;;;;;6.80;5.10;;;;;;;7.52;100.00;102062.19;5035203;28;20053;-31
2022/05/03 00:21:42;;;;;;;7.50;5.75;;;;;;;7.51;100.00;102063.28;5034360;28;20060;-34
2022/05/03 00:24:09;;;;;;;7.00;5.45;;;;;;;7.47;100.00;102062.94;5034925;28;20059;-35
2022/05/03 00:26:37;;;;;;;7.50;5.78;;;;;;;7.46;100.00;102061.25;5034016;28;20057;-29
2022/05/03 00:29:05;;;;;;;8.05;6.13;;;;;;;7.43;100.00;102056.19;5034658;28;20048;-33
2022/05/03 00:31:33;;;;;;;8.95;6.30;;;;;;;7.41;100.00;102054.75;5034420;28;20042;-32
2022/05/03 00:34:02;;;;;;;7.93;5.70;;;;;;;7.39;100.00;102054.19;5033751;28;20092;-34
2022/05/03 00:36:30;;;;;;;8.02;6.18;;;;;;;7.38;100.00;102060.81;5034872;28;20045;-27
2022/05/03 00:38:59;;;;;;;8.43;5.88;;;;;;;7.36;100.00;102058.28;5034412;28;20050;-32
2022/05/03 00:41:36;;;;;;;9.18;6.70;;;;;;;7.37;100.00;102051.66;5033619;28;20064;-29
2022/05/03 00:47:02;;;;;;;7.35;5.43;;;;;;;7.31;100.00;102044.31;5034058;28;20053;-35
2022/05/03 00:49:38;;;;;;;9.52;6.70;;;;;;;7.30;100.00;102042.63;5033689;28;20046;-31
2022/05/03 00:52:16;;;;;;;9.05;5.90;;;;;;;7.29;100.00;102037.31;5034468;28;20060;-32
2022/05/03 00:54:53;;;;;;;8.45;5.93;;;;;;;7.30;100.00;102047.31;5033920;28;20140;-34
2022/05/03 00:57:34;;;;;;;8.18;5.82;;;;;;;7.28;100.00;102044.78;5034227;28;20047;-35
2022/05/03 01:00:06;;;;;;;7.97;5.70;;;;;;;7.29;100.00;102032.59;5034708;28;20065;-28
2022/05/03 01:03:05;;;;;;;9.18;6.05;;;;;;;7.29;100.00;102042.84;5033456;28;20049;-28
2022/05/03 01:05:45;;;;;;;8.95;5.95;;;;;;;7.25;100.00;102037.81;5034300;28;20132;-34
2022/05/03 01:08:21;;;;;;;7.60;5.57;;;;;;;7.23;100.00;102039.97;5034087;28;20053;-33
2022/05/03 01:11:06;;;;;;;6.25;4.65;;;;;;;7.23;100.00;102044.69;5033373;28;20049;-34
2022/05/03 01:13:37;;;;;;;6.00;5.03;;;;;;;7.20;100.00;102045.19;5034127;28;20057;-29
2022/05/03 01:16:16;;;;;;;9.05;6.68;;;;;;;7.19;100.00;102044.34;5033417;28;20057;-32
2022/05/03 01:18:53;;;;;;;9.27;6.80;;;;;;;7.18;100.00;102039.91;5033299;28;20081;-31
2022/05/03 01:21:38;;;;;;;8.73;6.85;;;;;;;7.20;100.00;102042.41;5033772;28;20052;-37
2022/05/03 01:24:28;;;;;;;9.52;6.75;;;;;;;7.20;100.00;102034.91;5033536;28;20053;-32
2022/05/03 01:27:25;;;;;;;8.57;5.88;;;;;;;7.21;100.00;102041.31;5033670;28;20061;-29
2022/05/03 01:29:58;;;;;;;7.05;5.15;;;;;;;7.21;100.00;102035.75;5032821;28;20515;-32
2022/05/03 01:32:27;;;;;;;8.02;5.78;;;;;;;7.23;100.00;102039.97;5033756;28;20057;-34
2022/05/03 01:34:57;;;;;;;11.40;8.10;;;;;;;7.28;100.00;102039.25;5033603;28;20057;-35
2022/05/03 01:37:39;;;;;;;10.38;7.63;;;;;;;7.32;100.00;102036.81;5032940;28;20433;-31
2022/05/03 01:40:08;;;;;;;11.23;8.63;;;;;;;7.37;100.00;102034.97;5033540;28;20046;-36
2022/05/03 01:43:18;;;;;;;10.25;7.60;;;;;;;7.47;100.00;102031.53;5033406;28;20057;-29
2022/05/03 01:46:04;;;;;;;13.35;10.00;;;;;;;7.56;100.00;102021.72;5013375;28;20069;-35
2022/05/03 01:51:45;;;;;;;14.23;10.55;;;;;;;7.72;100.00;102014.47;5032522;28;20603;-28
2022/05/03 01:54:30;;;;;;;14.63;10.82;;;;;;;7.79;100.00;102029.06;5033123;28;20056;-30
2022/05/03 01:57:07;;;;;;;13.90;10.15;;;;;;;7.88;100.00;102031.16;5032936;28;20057;-30
2022/05/03 01:59:45;;;;;;;12.55;9.73;;;;;;;7.97;100.00;102023.25;5031477;28;20072;-32
2022/05/03 02:02:31;;;;;;;15.38;11.68;;;;;;;8.07;100.00;102028.13;5033031;28;20045;-33
2022/05/03 02:05:06;;;;;;;15.20;9.55;;;;;;;8.16;100.00;102023.81;5033059;28;20059;-32
2022/05/03 02:07:55;;;;;;;16.88;12.60;;;;;;;8.28;100.00;102021.75;5032851;28;20045;-32
2022/05/03 02:10:43;;;;;;;15.75;11.52;;;;;;;8.41;100.00;102021.44;5032949;28;20056;-34
2022/05/03 02:14:43;;;;;;;17.73;12.63;;;;;;;8.54;100.00;102014.66;5032168;28;20052;-28
2022/05/03 02:16:29;;;;;;;23.02;16.67;;;;;;;8.64;100.00;102017.56;5032774;28;20049;-35
2022/05/03 02:19:10;;;;;;;25.90;18.10;;;;;;;8.80;100.00;102019.44;5032837;28;20041;-33
2022/05/03 02:21:51;;;;;;;33.88;22.40;;;;;;;8.91;100.00;102020.44;5032823;28;20048;-34
2022/05/03 02:24:28;;;;;;;37.33;25.20;;;;;;;9.00;100.00;102004.94;5032667;28;20045;-33
2022/05/03 02:27:05;;;;;;;26.63;18.92;;;;;;;9.13;100.00;102020.41;5032061;28;20050;-30
2022/05/03 02:29:41;;;;;;;29.83;21.10;;;;;;;9.21;100.00;102011.56;5031831;28;20068;-35
2022/05/03 02:32:12;;;;;;;33.38;22.13;;;;;;;9.30;100.00;102010.84;5032366;28;20053;-36
2022/05/03 02:34:47;;;;;;;30.80;21.00;;;;;;;9.39;100.00;102010.38;5031750;28;20060;-32
2022/05/03 02:37:17;;;;;;;28.75;21.13;;;;;;;9.45;100.00;102014.88;5045619;28;20045;-32
2022/05/03 02:39:53;;;;;;;33.08;22.42;;;;;;;9.52;100.00;102018.31;5054256;28;20045;-34
2022/05/03 02:42:22;;;;;;;35.63;24.52;;;;;;;9.55;100.00;102006.66;5043205;28;20056;-30
2022/05/03 02:44:52;;;;;;;41.38;26.02;;;;;;;9.61;100.00;102011.13;5049715;28;20506;-29
2022/05/03 02:47:30;;;;;;;44.80;28.30;;;;;;;9.68;100.00;102011.78;5058050;28;20044;-33
2022/05/03 02:50:09;;;;;;;48.10;28.77;;;;;;;9.73;100.00;102017.41;5049962;28;20255;-32
2022/05/03 02:52:49;;;;;;;55.13;31.38;;;;;;;9.77;100.00;102017.72;5047631;28;20409;-32
2022/05/03 02:55:22;;;;;;;40.70;24.95;;;;;;;9.81;100.00;102021.63;5048778;28;20059;-39
2022/05/03 02:57:55;;;;;;;45.85;27.67;;;;;;;9.85;100.00;102023.63;5058705;28;20037;-30
2022/05/03 03:03:32;;;;;;;37.63;23.10;;;;;;;9.91;100.00;102016.16;5057841;28;20056;-33
2022/05/03 03:06:02;;;;;;;45.47;26.63;;;;;;;9.93;100.00;102012.00;5040429;28;20052;-32
2022/05/03 03:08:36;;;;;;;49.20;29.15;;;;;;;9.96;100.00;102010.63;5044245;28;20051;-34
2022/05/03 03:11:07;;;;;;;53.97;31.20;;;;;;;9.98;100.00;102006.47;5040376;28;20052;-35
2022/05/03 03:13:52;;;;;;;52.08;30.77;;;;;;;10.04;100.00;102015.69;5054398;28;20064;-36
2022/05/03 03:16:28;;;;;;;54.97;30.98;;;;;;;10.06;100.00;102012.63;5039320;28;20498;-33
2022/05/03 03:18:58;;;;;;;44.78;27.85;;;;;;;10.06;100.00;102016.25;5045826;28;20482;-30
2022/05/03 03:21:32;;;;;;;41.50;25.35;;;;;;;10.09;100.00;102017.69;5051343;28;20060;-37
2022/05/03 03:24:01;;;;;;;53.65;33.42;;;;;;;10.10;100.00;102009.03;5044059;28;20352;-34
2022/05/03 03:26:31;;;;;;;52.13;32.10;;;;;;;10.13;100.00;102002.09;5039907;28;20060;-36
2022/05/03 03:29:00;;;;;;;51.80;31.02;;;;;;;10.14;100.00;102014.94;5044776;28;20060;-30
2022/05/03 03:31:31;;;;;;;45.13;28.65;;;;;;;10.15;100.00;102011.88;5052764;28;20426;-31
2022/05/03 03:34:01;;;;;;;46.90;29.67;;;;;;;10.18;100.00;102004.94;5044391;28;20088;-30
2022/05/03 03:36:32;;;;;;;40.03;26.10;;;;;;;10.21;100.00;102004.41;5051758;28;20056;-33
2022/05/03 03:39:00;;;;;;;40.85;27.50;;;;;;;10.21;100.00;102007.19;5044163;28;20057;-33
2022/05/03 03:41:29;;;;;;;44.92;27.83;;;;;;;10.23;100.00;101997.44;5040926;28;20048;-32
2022/05/03 03:43:57;;;;;;;41.22;26.83;;;;;;;10.24;100.00;101998.28;5061508;28;20063;-34
2022/05/03 03:46:25;;;;;;;35.20;23.33;;;;;;;10.27;100.00;102000.53;5053117;28;20046;-35
2022/05/03 03:48:53;;;;;;;40.20;25.05;;;;;;;10.29;100.00;101989.94;5061944;28;20052;-29
2022/05/03 03:51:20;;;;;;;36.83;22.52;;;;;;;10.30;100.00;101997.22;5053127;28;20048;-32
2022/05/03 03:53:51;;;;;;;32.00;21.73;;;;;;;10.32;100.00;101995.00;5061604;28;20049;-34
2022/05/03 03:56:19;;;;;;;35.60;23.08;;;;;;;10.34;100.00;101998.34;5057426;28;20486;-34
2022/05/03 03:58:48;;;;;;;41.95;25.77;;;;;;;10.37;100.00;101996.97;5059277;28;20073;-31
2022/05/03 04:01:16;;;;;;;28.83;19.20;;;;;;;10.37;100.00;101997.81;5059411;28;20041;-35
2022/05/03 04:03:46;;;;;;;33.30;21.25;;;;;;;10.40;100.00;102005.63;5053578;28;20053;-34
2022/05/03 04:06:14;;;;;;;38.00;24.55;;;;;;;10.39;100.00;101998.41;5074283;28;20060;-38
2022/05/03 04:08:41;;;;;;;32.35;21.20;;;;;;;10.41;100.00;102003.69;5074691;28;20052;-32
2022/05/03 04:11:18;;;;;;;33.13;21.05;;;;;;;10.43;100.00;102010.66;5074774;28;20048;-31
2022/05/03 04:13:46;;;;;;;26.50;16.88;;;;;;;10.43;100.00;102002.31;5074023;28;20053;-30
2022/05/03 04:16:14;;;;;;;28.08;18.38;;;;;;;10.45;100.00;102002.03;5074593;28;20111;-35
2022/05/03 04:18:45;;;;;;;45.10;26.73;;;;;;;10.47;100.00;102008.19;5048199;28;20115;-33
2022/05/03 04:21:14;;;;;;;34.13;21.40;;;;;;;10.49;100.00;102003.19;5049526;28;20053;-34
2022/05/03 04:23:43;;;;;;;35.30;20.95;;;;;;;10.50;100.00;102002.91;5051039;28;20045;-30
2022/05/03 04:26:11;;;;;;;29.33;18.67;;;;;;;10.52;100.00;102002.63;5065571;28;20409;-28
2022/05/03 04:28:40;;;;;;;36.72;23.25;;;;;;;10.54;100.00;102001.25;5054421;28;20050;-32
2022/05/03 04:31:08;;;;;;;37.08;22.85;;;;;;;10.55;100.00;102002.94;5047118;28;20053;-32
2022/05/03 04:33:36;;;;;;;27.95;18.33;;;;;;;10.58;100.00;102004.34;5055423;28;20140;-30
2022/05/03 04:36:05;;;;;;;25.38;17.10;;;;;;;10.59;100.00;102006.84;5047309;28;20046;-35
2022/05/03 04:38:32;;;;;;;33.22;20.75;;;;;;;10.62;100.00;102011.91;5056216;28;20109;-34
2022/05/03 04:41:01;;;;;;;30.55;19.30;;;;;;;10.62;100.00;102014.69;5046249;28;20049;-37
2022/05/03 04:43:29;;;;;;;31.50;19.75;;;;;;;10.68;100.00;102012.78;5056148;28;20068;-37
2022/05/03 04:46:00;;;;;;;22.80;14.70;;;;;;;10.69;100.00;102006.91;5047181;28;20048;-36
2022/05/03 04:48:27;;;;;;;26.80;16.10;;;;;;;10.71;100.00;102009.44;5055534;28;20040;-34
2022/05/03 04:50:55;;;;;;;41.42;25.30;;;;;;;10.73;100.00;102018.38;5046825;28;20037;-31
2022/05/03 04:53:23;;;;;;;25.65;16.92;;;;;;;10.75;100.00;102020.91;5053531;28;20047;-29
2022/05/03 04:55:51;;;;;;;26.15;16.17;;;;;;;10.77;100.00;102018.69;5046491;28;20044;-31
2022/05/03 04:58:19;;;;;;;26.45;16.52;;;;;;;10.80;100.00;102018.13;5050344;28;20510;-37
2022/05/03 05:00:47;;;;;;;25.27;17.02;;;;;;;10.83;100.00;102017.56;5048604;28;20045;-32
2022/05/03 05:03:16;;;;;;;32.38;21.30;;;;;;;10.87;100.00;102015.91;5050127;28;20459;-33
2022/05/03 05:05:44;;;;;;;34.83;22.90;;;;;;;10.87;100.00;102016.75;5047471;28;20451;-36
2022/05/03 05:08:11;;;;;;;31.42;19.90;;;;;;;10.90;100.00;102015.38;5050365;28;20071;-31
2022/05/03 05:10:39;;;;;;;35.83;22.40;;;;;;;10.93;100.00;102018.47;5047710;28;20049;-35
2022/05/03 05:13:07;;;;;;;31.65;20.13;;;;;;;10.96;100.00;102017.94;5048362;28;20052;-27
2022/05/03 05:15:37;;;;;;;42.50;24.42;;;;;;;10.98;100.00;102021.28;5060536;28;20052;-32
2022/05/03 05:18:05;;;;;;;27.48;17.60;;;;;;;10.97;100.00;102022.41;5058718;28;20056;-32
2022/05/03 05:20:34;;;;;;;22.30;14.68;;;;;;;11.00;100.00;102027.41;5056164;28;20146;-32
2022/05/03 05:23:02;;;;;;;22.77;14.45;;;;;;;11.02;100.00;102029.94;5059029;28;20053;-32
2022/05/03 05:25:50;;;;;;;30.52;17.92;;;;;;;11.01;100.00;102031.88;5046019;28;20514;-33
2022/05/03 05:28:20;;;;;;;33.92;20.23;;;;;;;11.05;100.00;102029.41;5058689;28;20055;-32
2022/05/03 05:30:51;;;;;;;36.28;22.42;;;;;;;11.06;100.00;102042.25;5053730;28;20070;-31
2022/05/03 05:33:20;;;;;;;30.13;17.92;;;;;;;11.07;100.00;102041.13;5056439;28;20414;-25
2022/05/03 05:35:50;;;;;;;42.03;24.85;;;;;;;11.09;100.00;102040.88;5040553;28;20169;-32
2022/05/03 05:38:18;;;;;;;42.20;25.42;;;;;;;11.09;100.00;102041.72;5040569;28;20053;-36
2022/05/03 05:40:48;;;;;;;46.15;27.63;;;;;;;11.10;100.00;102039.75;5041672;28;20460;-31
2022/05/03 05:43:17;;;;;;;31.00;18.83;;;;;;;11.11;100.00;102047.88;5058260;28;20044;-29
2022/05/03 05:45:45;;;;;;;33.60;20.63;;;;;;;11.13;100.00;102045.63;5049411;28;20126;-33
2022/05/03 05:48:13;;;;;;;31.08;19.77;;;;;;;11.14;100.00;102047.31;5058198;28;20048;-35
2022/05/03 05:50:41;;;;;;;29.15;17.65;;;;;;;11.15;100.00;102049.00;5048515;28;20089;-31
2022/05/03 05:55:56;;;;;;;41.60;25.63;;;;;;;11.14;100.00;102052.06;5049362;28;20523;-31
2022/05/03 05:58:24;;;;;;;32.85;19.55;;;;;;;11.10;100.00;102057.34;5057302;28;20048;-36
2022/05/03 06:00:51;;;;;;;28.30;16.80;;;;;;;11.04;100.00;102050.91;5049739;28;20064;-36
2022/05/03 06:03:22;;;;;;;26.88;14.85;;;;;;;10.95;100.00;102049.75;5058196;28;20052;-30
2022/05/03 06:05:51;;;;;;;21.55;14.27;;;;;;;10.88;100.00;102056.69;5048609;28;20134;-35
2022/05/03 06:08:20;;;;;;;17.92;11.50;;;;;;;10.81;100.00;102053.31;5038082;28;20495;-30
2022/05/03 06:10:49;;;;;;;16.40;11.95;;;;;;;10.74;100.00;102058.31;5051386;28;20437;-35
2022/05/03 06:13:17;;;;;;;15.98;10.93;;;;;;;10.67;100.00;102062.19;5059525;28;20045;-34
2022/05/03 06:15:44;;;;;;;10.98;8.15;;;;;;;10.63;100.00;102062.97;5044687;28;20056;-29
2022/05/03 06:18:13;;;;;;;10.95;8.73;;;;;;;10.60;100.00;102064.34;5048256;28;20056;-31
2022/05/03 06:20:41;;;;;;;11.10;8.43;;;;;;;10.58;100.00;102074.13;5047745;28;20048;-30
2022/05/03 06:23:13;;;;;;;10.82;7.80;;;;;;;10.54;100.00;102073.81;5057989;28;20049;-34
2022/05/03 06:25:42;;;;;;;9.45;7.05;;;;;;;10.50;100.00;102083.00;5064052;28;20047;-35
2022/05/03 06:28:11;;;;;;;9.82;7.70;;;;;;;10.44;100.00;102076.53;5045952;28;20053;-33
2022/05/03 06:30:40;;;;;;;7.80;5.68;;;;;;;10.41;100.00;102079.84;5056265;28;20095;-32
2022/05/03 06:33:07;;;;;;;7.30;5.40;;;;;;;10.40;100.00;102085.72;5054217;28;20060;-37
2022/05/03 06:35:35;;;;;;;7.78;5.75;;;;;;;10.37;100.00;102084.31;5054668;28;20044;-27
2022/05/03 06:38:04;;;;;;;6.75;4.82;;;;;;;10.35;100.00;102084.59;5049315;28;20152;-30
2022/05/03 06:40:31;;;;;;;6.40;4.53;;;;;;;10.36;100.00;102082.63;5070198;28;20054;-34
2022/05/03 06:43:00;;;;;;;7.70;5.53;;;;;;;10.39;100.00;102095.22;5071072;28;20051;-34
2022/05/03 06:45:28;;;;;;;7.63;5.47;;;;;;;10.34;100.00;102088.47;5053225;28;20049;-31
2022/05/03 06:47:56;;;;;;;6.90;4.55;;;;;;;10.30;100.00;102087.34;5052014;28;20037;-35
2022/05/03 06:50:24;;;;;;;6.30;4.97;;;;;;;10.29;100.00;102087.59;5043840;28;20426;-30
2022/05/03 06:52:52;;;;;;;7.97;5.20;;;;;;;10.27;100.00;102090.66;5052186;28;20108;-34
2022/05/03 06:55:20;;;;;;;7.50;5.10;;;;;;;10.24;100.00;102093.13;5044715;28;20044;-31
2022/05/03 06:57:48;;;;;;;6.93;4.93;;;;;;;10.23;100.00;102099.81;5047930;28;20468;-34
2022/05/03 07:00:17;;;;;;;5.15;4.05;;;;;;;10.23;100.00;102097.03;5056750;28;20588;-29
2022/05/03 07:02:45;;;;;;;7.75;5.03;;;;;;;10.24;100.00;102105.13;5047951;28;20052;-33
2022/05/03 07:05:14;;;;;;;6.82;4.00;;;;;;;10.26;100.00;102100.13;5041239;28;20113;-29
2022/05/03 07:07:41;;;;;;;5.82;3.85;;;;;;;10.30;100.00;102108.81;5047856;28;21001;-32
2022/05/03 07:10:10;;;;;;;8.60;5.18;;;;;;;10.35;100.00;102106.06;5059167;28;20058;-35
2022/05/03 07:12:38;;;;;;;6.10;4.30;;;;;;;10.39;100.00;102101.63;5044073;28;20053;-33
2022/05/03 07:15:08;;;;;;;5.63;3.80;;;;;;;10.43;100.00;102102.75;5044945;28;20392;-33
2022/05/03 07:23:11;;;;;;;6.63;4.63;;;;;;;10.48;100.00;102111.19;5043220;28;20086;-28
2022/05/03 07:25:39;;;;;;;9.60;5.63;;;;;;;10.53;100.00;102111.22;5058626;28;20073;-30
2022/05/03 07:28:08;;;;;;;8.63;5.60;;;;;;;10.55;100.00;102109.00;5035943;28;20057;-34
2022/05/03 07:30:36;;;;;;;6.88;5.70;;;;;;;10.60;100.00;102117.38;5059079;28;20081;-28
2022/05/03 07:33:06;;;;;;;8.52;5.05;;;;;;;10.62;100.00;102112.38;5056734;28;20140;-37
2022/05/03 07:35:33;;;;;;;8.13;4.43;;;;;;;10.62;100.00;102111.53;5060360;28;20060;-34
2022/05/03 07:38:01;;;;;;;6.68;3.90;;;;;;;10.62;100.00;102115.16;5055664;28;20049;-32
2022/05/03 07:40:29;;;;;;;5.72;3.75;;;;;;;10.64;100.00;102115.75;5059135;28;20048;-29
2022/05/03 07:42:57;;;;;;;7.97;4.15;;;;;;;10.68;100.00;102116.91;5058494;28;20055;-33
2022/05/03 07:45:25;;;;;;;8.57;3.90;;;;;;;10.75;100.00;102122.25;5057799;28;20450;-33
2022/05/03 07:47:53;;;;;;;8.38;3.95;;;;;;;10.79;100.00;102114.19;5059873;28;20091;-32
2022/05/03 07:50:22;;;;;;;8.65;3.55;;;;;;;10.85;100.00;102116.72;5052961;28;20079;-35
2022/05/03 07:52:49;;;;;;;9.88;3.65;;;;;;;10.91;100.00;102121.22;5065649;28;20048;-35
2022/05/03 07:55:17;;;;;;;6.43;3.22;;;;;;;10.98;100.00;102121.00;5048625;28;20139;-34
2022/05/03 07:57:45;;;;;;;8.15;3.70;;;;;;;11.05;100.00;102119.63;5058175;28;20036;-30
2022/05/03 08:00:14;;;;;;;7.82;3.58;;;;;;;11.12;100.00;102124.97;5049799;28;20135;-27
2022/05/03 08:02:42;;;;;;;6.85;3.40;;;;;;;11.18;100.00;102126.69;5058809;28;20066;-32
2022/05/03 08:05:10;;;;;;;8.65;3.25;;;;;;;11.22;100.00;102119.41;5049946;28;20073;-32
2022/05/03 08:07:39;;;;;;;7.28;3.28;;;;;;;11.27;100.00;102124.19;5058899;28;20512;-39
2022/05/03 08:10:08;;;;;;;7.65;3.25;;;;;;;11.31;100.00;102120.59;5051436;28;20055;-29
2022/05/03 08:12:36;;;;;;;8.27;3.20;;;;;;;11.34;100.00;102125.63;5057400;28;20072;-31
2022/05/03 08:15:04;;;;;;;9.48;3.20;;;;;;;11.42;100.00;102129.00;5059595;28;20048;-36
2022/05/03 08:17:32;;;;;;;12.55;3.58;;;;;;;11.49;100.00;102126.78;5059028;28;20057;-32
2022/05/03 08:20:00;;;;;;;9.02;3.00;;;;;;;11.53;100.00;102127.94;5062083;28;20045;-35
2022/05/03 08:22:28;;;;;;;10.02;2.85;;;;;;;11.57;100.00;102129.91;5057452;28;20055;-26
2022/05/03 08:24:57;;;;;;;12.68;3.10;;;;;;;11.63;100.00;102134.38;5055372;28;20049;-29
2022/05/03 08:27:25;;;;;;;10.43;3.40;;;;;;;11.66;100.00;102136.63;5061019;28;20049;-33
2022/05/03 08:29:53;;;;;;;10.10;2.75;;;;;;;11.70;100.00;102140.56;5055741;28;20053;-36
2022/05/03 08:32:21;;;;;;;7.80;2.60;;;;;;;11.78;100.00;102142.03;5057124;28;20110;-31
2022/05/03 08:34:49;;;;;;;11.75;2.95;;;;;;;11.82;100.00;102137.53;5048856;28;20051;-36
2022/05/03 08:42:50;;;;;;;8.27;2.38;;;;;;;11.94;100.00;102145.69;5046909;28;20478;-35
2022/05/03 08:45:19;;;;;;;10.35;3.10;;;;;;;11.99;100.00;102154.91;5049946;28;20052;-29
2022/05/03 08:47:48;;;;;;;11.65;2.97;;;;;;;12.05;100.00;102161.34;5047048;28;20053;-31
2022/05/03 08:50:19;;;;;;;8.32;2.70;;;;;;;12.08;100.00;102163.59;5047685;28;20032;-31
2022/05/03 08:52:51;;;;;;;8.10;2.90;;;;;;;12.12;100.00;102161.94;5047746;28;20085;-29
2022/05/03 08:55:20;;;;;;;8.52;2.38;;;;;;;12.12;100.00;102161.09;5046908;28;20049;-36
2022/05/03 08:57:48;;;;;;;12.13;2.88;;;;;;;12.13;100.00;102169.22;5049199;28;20045;-29
2022/05/03 09:00:18;;;;;;;8.15;2.80;;;;;;;12.15;100.00;102168.94;5061332;28;20413;-30
2022/05/03 09:02:47;;;;;;;7.85;2.50;;;;;;;12.17;100.00;102169.50;5052136;28;20498;-34
2022/05/03 09:05:16;;;;;;;8.30;2.10;;;;;;;12.18;100.00;102173.97;5058470;28;20056;-32
2022/05/03 09:07:48;;;;;;;7.10;2.50;;;;;;;12.16;100.00;102171.47;5049171;28;20036;-32
2022/05/03 09:10:18;;;;;;;8.80;2.67;;;;;;;12.12;100.00;102175.09;5047520;28;20114;-33
2022/05/03 09:12:49;;;;;;;9.77;2.80;;;;;;;12.11;100.00;102174.25;5041795;28;20487;-37
2022/05/03 09:15:29;;;;;;;11.40;3.28;;;;;;;12.08;100.00;102180.38;5044819;28;20064;-34
2022/05/03 09:17:58;;;;;;;7.82;2.63;;;;;;;12.04;100.00;102182.91;5054656;28;20402;-29
2022/05/03 09:26:11;;;;;;;10.45;3.00;;;;;;;12.16;100.00;102185.44;5056523;28;20041;-32
2022/05/03 09:28:52;;;;;;;11.25;2.92;;;;;;;12.23;100.00;102185.16;5051222;28;20061;-31
2022/05/03 09:31:32;;;;;;;10.40;2.80;;;;;;;12.25;100.00;102192.16;5046525;28;20544;-37
2022/05/03 09:34:01;;;;;;;8.55;2.22;;;;;;;12.25;100.00;102191.31;5047872;28;20150;-33
2022/05/03 09:36:40;;;;;;;11.55;2.10;;;;;;;12.28;100.00;102191.63;5042774;28;20056;-32
2022/05/03 09:39:30;;;;;;;11.60;2.40;;;;;;;12.32;100.00;102194.69;5046035;28;20049;-35
2022/05/03 09:42:06;;;;;;;6.38;2.33;;;;;;;12.38;100.00;102199.19;5046661;28;20056;-31
2022/05/03 09:44:37;;;;;;;8.32;2.67;;;;;;;12.43;100.00;102196.38;5045555;28;20049;-34
2022/05/03 09:47:11;;;;;;;9.32;2.80;;;;;;;12.43;100.00;102194.41;5056967;28;20103;-35
2022/05/03 09:49:40;;;;;;;9.32;2.53;;;;;;;12.47;99.84;102200.31;5055909;28;20044;-32
2022/05/03 09:52:09;;;;;;;12.93;2.70;;;;;;;12.49;98.98;102197.22;5056885;28;20527;-31
2022/05/03 09:54:47;;;;;;;11.77;2.47;;;;;;;12.56;98.60;102195.84;5053530;28;20049;-37
2022/05/03 09:57:21;;;;;;;7.32;2.47;;;;;;;12.66;98.06;102201.44;5040974;28;20037;-28
2022/05/03 09:59:53;;;;;;;11.45;3.08;;;;;;;12.71;96.46;102209.84;5049202;28;20053;-37
2022/05/03 10:02:23;;;;;;;10.95;2.33;;;;;;;12.75;95.84;102208.16;5045425;28;20071;-36
2022/05/03 10:04:52;;;;;;;9.50;2.78;;;;;;;12.76;94.75;102209.84;5050792;28;20107;-36
2022/05/03 10:07:21;;;;;;;11.63;2.95;;;;;;;12.79;93.95;102200.00;5044119;28;20434;-31
2022/05/03 10:09:49;;;;;;;8.07;2.28;;;;;;;12.83;93.50;102212.34;5052882;28;20045;-33
2022/05/03 10:12:19;;;;;;;9.75;2.47;;;;;;;12.97;93.49;102201.41;5043551;28;20415;-30
2022/05/03 10:14:48;;;;;;;8.90;2.50;;;;;;;13.12;92.82;102204.19;5053111;28;20044;-34
2022/05/03 10:23:22;;;;;;;8.02;1.80;;;;;;;13.38;88.52;102211.44;5042591;28;20487;-34
2022/05/03 10:25:51;;;;;;;10.25;2.30;;;;;;;13.41;87.54;102210.84;5051901;28;20052;-30
2022/05/03 10:28:19;;;;;;;11.00;2.47;;;;;;;13.48;86.69;102216.16;5045114;28;20045;-29
2022/05/03 10:31:07;;;;;;;9.32;2.20;;;;;;;13.62;85.50;102205.16;5049873;28;20243;-37
2022/05/03 10:33:41;;;;;;;8.93;2.13;;;;;;;13.72;84.57;102203.16;5042037;28;20068;-33
2022/05/03 10:36:40;;;;;;;5.60;1.90;;;;;;;13.89;83.62;102211.22;5044784;28;20041;-29
2022/05/03 10:39:22;;;;;;;6.90;1.70;;;;;;;14.00;81.68;102210.00;5051774;28;20075;-35
2022/05/03 10:41:58;;;;;;;7.25;1.73;;;;;;;14.06;81.14;102211.66;5059635;28;20060;-35
2022/05/03 10:44:54;;;;;;;11.13;2.20;;;;;;;14.26;79.87;102216.31;5055026;28;20067;-30
2022/05/03 10:47:41;;;;;;;6.88;1.63;;;;;;;14.37;78.16;102201.09;5050502;28;20069;-34
2022/05/03 10:50:44;;;;;;;8.20;2.10;;;;;;;14.39;75.53;102201.63;5040519;28;20102;-28
2022/05/03 10:53:30;;;;;;;7.70;1.88;;;;;;;14.43;75.67;102204.72;4987810;28;20056;-36
2022/05/03 10:56:12;;;;;;;7.20;1.80;;;;;;;14.46;75.50;102204.13;5053193;28;20072;-33
2022/05/03 10:58:42;;;;;;;6.22;1.85;;;;;;;14.52;74.86;102204.94;5044744;28;20042;-31
2022/05/03 11:01:18;;;;;;;6.90;1.80;;;;;;;14.57;73.73;102207.72;5052861;28;20107;-31
2022/05/03 11:04:10;;;;;;;4.93;1.67;;;;;;;14.65;72.44;102202.28;5044878;28;20053;-27
2022/05/03 11:06:44;;;;;;;6.88;2.00;;;;;;;14.72;72.19;102196.34;5052945;28;20037;-33
2022/05/03 11:09:15;;;;;;;7.25;2.05;;;;;;;14.79;70.83;102202.44;5044925;28;20067;-36
2022/05/03 11:11:56;;;;;;;5.22;1.52;;;;;;;14.89;69.74;102202.34;5053626;28;20045;-32
2022/05/03 11:14:44;;;;;;;6.18;1.75;;;;;;;14.92;68.14;102207.41;5053243;28;20051;-36
2022/05/03 11:17:13;;;;;;;10.05;2.20;;;;;;;14.93;68.91;102202.59;5038982;28;20410;-35
2022/05/03 11:19:49;;;;;;;6.95;2.20;;;;;;;15.00;68.93;102206.72;5044189;28;20108;-31
2022/05/03 11:22:21;;;;;;;8.88;2.15;;;;;;;15.12;68.94;102198.75;5055513;28;20044;-32
2022/05/03 11:24:51;;;;;;;7.45;2.22;;;;;;;15.11;68.18;102196.25;5058364;28;20040;-35
2022/05/03 11:27:20;;;;;;;5.95;1.90;;;;;;;15.09;68.69;102198.50;5046984;28;20057;-32
2022/05/03 11:29:49;;;;;;;7.30;1.95;;;;;;;15.10;68.69;102197.38;5043744;28;20247;-32
2022/05/03 11:32:28;;;;;;;8.57;2.10;;;;;;;15.07;68.15;102198.81;5053237;28;20414;-32
2022/05/03 11:35:03;;;;;;;6.82;1.60;;;;;;;14.99;68.51;102193.81;5043889;28;20045;-29
2022/05/03 11:37:33;;;;;;;4.97;1.92;;;;;;;14.89;68.99;102196.75;5053401;28;20053;-35
2022/05/03 11:40:09;;;;;;;7.10;1.90;;;;;;;14.87;69.49;102199.00;5042528;28;20095;-37
2022/05/03 11:42:38;;;;;;;10.30;2.28;;;;;;;14.81;69.86;102192.59;5051627;28;20156;-36
2022/05/03 11:45:08;;;;;;;8.15;2.05;;;;;;;14.77;69.44;102193.50;5042597;28;20047;-34
2022/05/03 11:47:38;;;;;;;6.97;2.15;;;;;;;14.74;69.12;102194.91;5048218;28;20048;-35
2022/05/03 11:50:07;;;;;;;6.07;1.88;;;;;;;14.70;68.95;102188.19;5070854;28;20048;-37
2022/05/03 11:58:08;;;;;;;3.85;1.58;;;;;;;14.54;68.62;102178.25;5051844;28;20144;-38
2022/05/03 12:00:47;;;;;;;7.55;2.17;;;;;;;14.58;68.76;102178.50;5043962;28;20060;-32
2022/05/03 12:03:15;;;;;;;6.45;1.85;;;;;;;14.51;68.75;102177.97;5058134;28;20088;-34
2022/05/03 12:05:57;;;;;;;9.52;1.83;;;;;;;14.53;68.57;102170.94;5061433;28;20037;-38
2022/05/03 12:08:28;;;;;;;8.23;2.42;;;;;;;14.44;68.57;102176.34;5052196;28;20036;-33
2022/05/03 12:10:57;;;;;;;7.25;2.10;;;;;;;14.38;68.80;102171.88;5060607;28;20083;-28
2022/05/03 12:13:34;;;;;;;7.85;1.83;;;;;;;14.47;69.07;102174.91;5055830;28;20144;-32
2022/05/03 12:16:11;;;;;;;7.00;2.17;;;;;;;14.49;68.99;102175.47;5047609;28;20041;-30
2022/05/03 12:18:41;;;;;;;5.75;1.70;;;;;;;14.57;69.05;102168.38;5055701;28;20499;-31